Time;durP1;ratioP1;P1;durP2;ratioP2;P2;SDS_P1;SDS_P2;PMS_P1;PMS_P2;Temp;Humidity;BMP_temperature;BMP_pressure;BME280_temperature;BME280_humidity;BME280_pressure;Samples;Min_cycle;Max_cycle;Signal;HPM_P1;HPM_P2
2022/09/10 00:01:18;;;;;;;3.63;2.08;;;;;;;;;;2035266;29;20028;-68
2022/09/10 00:02:38;;;;;;;2.10;1.90;;;;;;;;;;2035242;29;20028;-68
2022/09/10 00:03:57;;;;;;;3.63;1.95;;;;;;;;;;2034872;29;20053;-68
2022/09/10 00:05:17;;;;;;;3.33;1.98;;;;;;;;;;2036658;29;20071;-66
2022/09/10 00:06:37;;;;;;;3.85;1.90;;;;;;;;;;2037178;29;20536;-66
2022/09/10 00:07:56;;;;;;;2.58;1.58;;;;;;;;;;2035758;29;20036;-67
2022/09/10 00:09:15;;;;;;;2.97;2.00;;;;;;;;;;2035057;29;20537;-67
2022/09/10 00:10:38;;;;;;;7.18;2.15;;;;;;;;;;2036405;29;20075;-67
2022/09/10 00:11:58;;;;;;;3.58;2.03;;;;;;;;;;2036673;29;20032;-67
2022/09/10 00:13:18;;;;;;;3.17;2.00;;;;;;;;;;2037612;29;20103;-67
2022/09/10 00:14:38;;;;;;;2.90;1.90;;;;;;;;;;2037589;29;20036;-67
2022/09/10 00:15:59;;;;;;;3.38;1.70;;;;;;;;;;2034735;29;20024;-67
2022/09/10 00:17:18;;;;;;;3.00;1.90;;;;;;;;;;2035919;29;20029;-67
2022/09/10 00:18:39;;;;;;;5.55;1.90;;;;;;;;;;2035375;29;20036;-67
2022/09/10 00:20:00;;;;;;;2.45;1.80;;;;;;;;;;2036245;29;20397;-67
2022/09/10 00:21:20;;;;;;;2.72;1.70;;;;;;;;;;2035997;29;20024;-67
2022/09/10 00:22:38;;;;;;;1.90;1.80;;;;;;;;;;2037685;29;20032;-67
2022/09/10 00:23:58;;;;;;;2.65;1.95;;;;;;;;;;2035600;29;20091;-67
2022/09/10 00:25:16;;;;;;;6.43;2.03;;;;;;;;;;2036634;29;20032;-67
2022/09/10 00:26:39;;;;;;;3.50;1.85;;;;;;;;;;2036563;29;20765;-67
2022/09/10 00:27:59;;;;;;;3.13;1.80;;;;;;;;;;2037126;29;20035;-66
2022/09/10 00:29:18;;;;;;;3.92;1.92;;;;;;;;;;2033471;29;20033;-67
2022/09/10 00:30:41;;;;;;;4.05;2.05;;;;;;;;;;2035120;29;20127;-67
2022/09/10 00:32:00;;;;;;;2.47;1.95;;;;;;;;;;2036497;29;20044;-67
2022/09/10 00:33:20;;;;;;;3.78;1.60;;;;;;;;;;2037767;29;20028;-66
2022/09/10 00:34:39;;;;;;;3.38;2.00;;;;;;;;;;2038320;29;20035;-67
2022/09/10 00:35:57;;;;;;;3.75;2.05;;;;;;;;;;2036369;29;20122;-68
2022/09/10 00:37:18;;;;;;;3.92;2.13;;;;;;;;;;2037651;29;20153;-67
2022/09/10 00:38:36;;;;;;;2.42;2.00;;;;;;;;;;2038303;29;20063;-69
2022/09/10 00:39:55;;;;;;;3.88;2.30;;;;;;;;;;2036772;29;20020;-67
2022/09/10 00:41:15;;;;;;;2.63;2.00;;;;;;;;;;2037737;29;20032;-67
2022/09/10 00:42:34;;;;;;;5.10;2.10;;;;;;;;;;2037190;29;20040;-67
2022/09/10 00:43:58;;;;;;;4.95;2.40;;;;;;;;;;2038250;29;20035;-67
2022/09/10 00:45:16;;;;;;;;;;;;;;;;;;2037165;29;20044;-67
2022/09/10 00:46:49;;;;;;;2.03;1.63;;;;;;;;;;2036365;29;19914;-67
2022/09/10 00:48:29;;;;;;;3.20;1.93;;;;;;;;;;2038272;29;20036;-67
2022/09/10 00:49:50;;;;;;;2.40;1.83;;;;;;;;;;2037754;29;20265;-67
2022/09/10 00:51:09;;;;;;;4.05;2.13;;;;;;;;;;2036544;29;20035;-67
2022/09/10 00:52:28;;;;;;;2.00;1.80;;;;;;;;;;2036031;29;20060;-67
2022/09/10 00:53:48;;;;;;;3.22;1.77;;;;;;;;;;2038828;29;20040;-67
2022/09/10 00:55:08;;;;;;;2.30;1.48;;;;;;;;;;2041854;29;20032;-68
2022/09/10 00:56:27;;;;;;;5.03;2.20;;;;;;;;;;2043363;29;20035;-67
2022/09/10 00:57:48;;;;;;;3.55;1.70;;;;;;;;;;2044101;29;20068;-67
2022/09/10 00:59:08;;;;;;;4.60;2.22;;;;;;;;;;2043108;29;20035;-67
2022/09/10 01:00:26;;;;;;;3.88;1.73;;;;;;;;;;2041364;29;20146;-67
2022/09/10 01:01:46;;;;;;;3.40;2.22;;;;;;;;;;2043678;28;20035;-67
2022/09/10 01:03:10;;;;;;;6.28;2.22;;;;;;;;;;2041670;29;20059;-67
2022/09/10 01:04:31;;;;;;;3.20;1.70;;;;;;;;;;2042471;29;20063;-67
2022/09/10 01:05:50;;;;;;;4.50;2.10;;;;;;;;;;2042573;29;20041;-67
2022/09/10 01:07:12;;;;;;;3.08;2.00;;;;;;;;;;2043029;29;20102;-67
2022/09/10 01:08:31;;;;;;;5.18;2.60;;;;;;;;;;2050025;28;20146;-67
2022/09/10 01:09:50;;;;;;;5.75;2.00;;;;;;;;;;2044218;28;20035;-67
2022/09/10 01:11:10;;;;;;;3.58;2.00;;;;;;;;;;2039877;29;20099;-67
2022/09/10 01:12:49;;;;;;;3.85;1.90;;;;;;;;;;2043510;29;20039;-67
2022/09/10 01:14:31;;;;;;;3.20;1.73;;;;;;;;;;2043849;29;20024;-67
2022/09/10 01:16:09;;;;;;;3.50;1.65;;;;;;;;;;2042010;29;20119;-67
2022/09/10 01:17:44;;;;;;;4.60;2.30;;;;;;;;;;2043603;29;20165;-67
2022/09/10 01:19:03;;;;;;;2.92;1.90;;;;;;;;;;2042943;29;20028;-67
2022/09/10 01:20:25;;;;;;;4.07;2.05;;;;;;;;;;2041705;29;20039;-67
2022/09/10 01:21:55;;;;;;;2.80;2.33;;;;;;;;;;2040915;29;20020;-67
2022/09/10 01:23:32;;;;;;;2.97;1.95;;;;;;;;;;2038332;29;20265;-68
2022/09/10 01:24:52;;;;;;;3.25;2.10;;;;;;;;;;2039957;29;20062;-68
2022/09/10 01:26:18;;;;;;;5.75;2.65;;;;;;;;;;2042208;29;20039;-68
2022/09/10 01:27:39;;;;;;;3.08;1.85;;;;;;;;;;2042997;29;20035;-67
2022/09/10 01:29:07;;;;;;;1.80;1.70;;;;;;;;;;2042129;29;20027;-67
2022/09/10 01:30:30;;;;;;;3.72;2.22;;;;;;;;;;2042264;29;20068;-67
2022/09/10 01:31:52;;;;;;;2.55;2.00;;;;;;;;;;2041953;29;20047;-68
2022/09/10 01:33:14;;;;;;;2.28;1.90;;;;;;;;;;2039456;29;20039;-67
2022/09/10 01:34:40;;;;;;;3.47;2.05;;;;;;;;;;2042585;29;20027;-68
2022/09/10 01:36:01;;;;;;;2.50;2.30;;;;;;;;;;2041939;29;20076;-67
2022/09/10 01:37:29;;;;;;;5.53;1.67;;;;;;;;;;2040761;29;20516;-67
2022/09/10 01:38:49;;;;;;;2.60;2.05;;;;;;;;;;2043052;29;20047;-67
2022/09/10 01:40:09;;;;;;;3.55;2.17;;;;;;;;;;2036991;29;20027;-68
2022/09/10 01:41:28;;;;;;;4.25;2.05;;;;;;;;;;2041300;28;20035;-68
2022/09/10 01:42:48;;;;;;;2.00;1.80;;;;;;;;;;2038218;29;20488;-68
2022/09/10 01:44:27;;;;;;;4.45;2.28;;;;;;;;;;2040790;29;20481;-68
2022/09/10 01:45:49;;;;;;;3.17;1.83;;;;;;;;;;2040468;29;20043;-68
2022/09/10 01:47:14;;;;;;;2.05;1.88;;;;;;;;;;2042354;29;20023;-67
2022/09/10 01:48:56;;;;;;;2.55;2.25;;;;;;;;;;2039005;29;20031;-68
2022/09/10 01:50:20;;;;;;;3.70;1.98;;;;;;;;;;2039406;29;20039;-68
2022/09/10 01:51:45;;;;;;;3.22;1.83;;;;;;;;;;2041556;29;20035;-68
2022/09/10 01:53:04;;;;;;;3.28;2.38;;;;;;;;;;2041728;29;20027;-68
2022/09/10 01:54:38;;;;;;;3.97;2.05;;;;;;;;;;2048159;28;20158;-68
2022/09/10 01:56:15;;;;;;;8.88;2.70;;;;;;;;;;2050713;28;20039;-68
2022/09/10 01:57:51;;;;;;;2.03;1.90;;;;;;;;;;2050003;28;20023;-68
2022/09/10 01:59:16;;;;;;;3.20;2.25;;;;;;;;;;2050245;28;20054;-68
2022/09/10 02:00:38;;;;;;;3.53;2.22;;;;;;;;;;2047383;28;20035;-68
2022/09/10 02:02:00;;;;;;;2.53;2.00;;;;;;;;;;2050008;28;20026;-68
2022/09/10 02:03:21;;;;;;;3.05;1.85;;;;;;;;;;2049105;28;20400;-68
2022/09/10 02:04:41;;;;;;;6.90;2.08;;;;;;;;;;2041644;29;20028;-67
2022/09/10 02:06:01;;;;;;;2.90;2.25;;;;;;;;;;2046204;28;20134;-67
2022/09/10 02:07:21;;;;;;;2.95;2.38;;;;;;;;;;2050231;28;20031;-68
2022/09/10 02:08:42;;;;;;;6.63;1.90;;;;;;;;;;2049355;28;20392;-67
2022/09/10 02:10:03;;;;;;;3.13;1.70;;;;;;;;;;2049926;28;20035;-67
2022/09/10 02:11:22;;;;;;;4.32;1.80;;;;;;;;;;2048788;28;20407;-68
2022/09/10 02:12:41;;;;;;;4.20;2.15;;;;;;;;;;2049430;28;20039;-67
2022/09/10 02:14:00;;;;;;;3.50;1.77;;;;;;;;;;2050290;28;20035;-67
2022/09/10 02:15:21;;;;;;;2.70;2.00;;;;;;;;;;2047802;28;20035;-67
2022/09/10 02:16:42;;;;;;;4.43;2.10;;;;;;;;;;2049151;28;20035;-67
2022/09/10 02:18:01;;;;;;;5.88;2.13;;;;;;;;;;2048524;28;20031;-68
2022/09/10 02:19:20;;;;;;;2.60;1.90;;;;;;;;;;2041747;28;20028;-66
2022/09/10 02:20:40;;;;;;;4.35;1.83;;;;;;;;;;2046551;28;20027;-67
2022/09/10 02:21:59;;;;;;;4.90;2.42;;;;;;;;;;2048043;28;20471;-67
2022/09/10 02:23:21;;;;;;;4.75;1.80;;;;;;;;;;2049493;28;20023;-66
2022/09/10 02:24:43;;;;;;;4.03;1.90;;;;;;;;;;2050127;28;20043;-66
2022/09/10 02:26:01;;;;;;;3.97;1.85;;;;;;;;;;2048435;28;20036;-66
2022/09/10 02:27:22;;;;;;;3.25;1.83;;;;;;;;;;2048093;28;20032;-67
2022/09/10 02:28:48;;;;;;;2.00;1.88;;;;;;;;;;2048889;28;20508;-68
2022/09/10 02:30:07;;;;;;;5.85;1.75;;;;;;;;;;2047595;28;20066;-67
2022/09/10 02:31:26;;;;;;;3.03;1.33;;;;;;;;;;2050309;28;20034;-67
2022/09/10 02:32:46;;;;;;;2.50;1.50;;;;;;;;;;2042414;29;20023;-68
2022/09/10 02:34:05;;;;;;;2.40;1.75;;;;;;;;;;2045646;28;20035;-67
2022/09/10 02:35:25;;;;;;;2.85;1.42;;;;;;;;;;2049045;28;20422;-67
2022/09/10 02:36:44;;;;;;;3.42;1.77;;;;;;;;;;2045748;28;20393;-67
2022/09/10 02:38:04;;;;;;;3.53;1.40;;;;;;;;;;2050247;28;20501;-67
2022/09/10 02:39:23;;;;;;;3.95;2.13;;;;;;;;;;2047288;28;20020;-67
2022/09/10 02:40:42;;;;;;;2.40;1.63;;;;;;;;;;2048629;28;20023;-67
2022/09/10 02:42:01;;;;;;;4.10;1.73;;;;;;;;;;2047792;28;20499;-67
2022/09/10 02:43:20;;;;;;;2.05;1.88;;;;;;;;;;2049802;28;20106;-67
2022/09/10 02:44:39;;;;;;;1.60;1.48;;;;;;;;;;2049665;28;20036;-68
2022/09/10 02:45:58;;;;;;;1.60;1.50;;;;;;;;;;2047611;28;20489;-67
2022/09/10 02:47:17;;;;;;;3.72;1.45;;;;;;;;;;2050844;28;20499;-67
2022/09/10 02:48:36;;;;;;;2.22;1.40;;;;;;;;;;2049747;28;20027;-67
2022/09/10 02:49:55;;;;;;;2.13;1.60;;;;;;;;;;2049576;28;20031;-67
2022/09/10 02:51:14;;;;;;;2.28;1.40;;;;;;;;;;2047841;28;20035;-67
2022/09/10 02:52:33;;;;;;;6.38;1.50;;;;;;;;;;2049575;28;20464;-67
2022/09/10 02:53:54;;;;;;;3.33;1.80;;;;;;;;;;2044028;28;20035;-67
2022/09/10 02:55:13;;;;;;;3.30;1.58;;;;;;;;;;2047497;28;20602;-67
2022/09/10 02:56:33;;;;;;;1.92;1.23;;;;;;;;;;2050742;28;20035;-67
2022/09/10 02:57:52;;;;;;;1.90;1.50;;;;;;;;;;2049165;28;20023;-67
2022/09/10 02:59:11;;;;;;;3.92;1.42;;;;;;;;;;2050783;28;20054;-67
2022/09/10 03:00:31;;;;;;;1.63;1.30;;;;;;;;;;2048072;28;20034;-67
2022/09/10 03:01:50;;;;;;;4.45;1.67;;;;;;;;;;2047981;28;20035;-67
2022/09/10 03:03:09;;;;;;;2.40;1.67;;;;;;;;;;2050507;28;20027;-67
2022/09/10 03:04:28;;;;;;;5.22;1.60;;;;;;;;;;2050152;28;20031;-67
2022/09/10 03:05:47;;;;;;;2.35;1.60;;;;;;;;;;2049719;28;20039;-67
2022/09/10 03:07:06;;;;;;;4.93;1.50;;;;;;;;;;2049656;28;20030;-67
2022/09/10 03:08:25;;;;;;;3.33;1.50;;;;;;;;;;2049830;28;20035;-67
2022/09/10 03:09:44;;;;;;;3.78;1.70;;;;;;;;;;2049773;28;20465;-67
2022/09/10 03:11:03;;;;;;;2.95;1.75;;;;;;;;;;2050480;28;20072;-67
2022/09/10 03:12:22;;;;;;;3.80;1.35;;;;;;;;;;2050450;28;20032;-67
2022/09/10 03:13:44;;;;;;;1.75;1.42;;;;;;;;;;2050307;28;20023;-67
2022/09/10 03:15:04;;;;;;;2.10;1.58;;;;;;;;;;2041286;29;20031;-67
2022/09/10 03:16:23;;;;;;;3.10;1.63;;;;;;;;;;2047758;28;20027;-67
2022/09/10 03:17:42;;;;;;;1.60;1.42;;;;;;;;;;2049992;28;20031;-67
2022/09/10 03:19:01;;;;;;;2.85;1.30;;;;;;;;;;2048987;28;20484;-67
2022/09/10 03:20:21;;;;;;;3.78;1.90;;;;;;;;;;2050447;28;20099;-67
2022/09/10 03:21:40;;;;;;;2.05;1.60;;;;;;;;;;2048670;28;20114;-67
2022/09/10 03:22:59;;;;;;;1.88;1.35;;;;;;;;;;2049979;28;20483;-67
2022/09/10 03:24:18;;;;;;;3.65;1.77;;;;;;;;;;2051852;28;20031;-67
2022/09/10 03:25:37;;;;;;;2.58;1.60;;;;;;;;;;2051563;28;20038;-67
2022/09/10 03:26:56;;;;;;;2.75;1.85;;;;;;;;;;2049692;28;20031;-67
2022/09/10 03:28:15;;;;;;;4.53;1.70;;;;;;;;;;2047443;28;20035;-68
2022/09/10 03:29:35;;;;;;;1.90;1.40;;;;;;;;;;2050323;28;20047;-67
2022/09/10 03:30:54;;;;;;;3.45;1.75;;;;;;;;;;2048528;28;20031;-67
2022/09/10 03:32:12;;;;;;;2.97;1.63;;;;;;;;;;2049132;28;20479;-67
2022/09/10 03:33:32;;;;;;;3.58;1.73;;;;;;;;;;2050989;28;20035;-67
2022/09/10 03:34:51;;;;;;;7.05;1.90;;;;;;;;;;2051211;28;20412;-67
2022/09/10 03:36:12;;;;;;;6.30;1.55;;;;;;;;;;2048540;28;20035;-67
2022/09/10 03:37:31;;;;;;;1.85;1.50;;;;;;;;;;2048032;28;20030;-67
2022/09/10 03:38:49;;;;;;;4.13;1.55;;;;;;;;;;2050377;28;20395;-67
2022/09/10 03:40:09;;;;;;;4.82;2.05;;;;;;;;;;2049470;28;20026;-67
2022/09/10 03:41:29;;;;;;;3.38;1.90;;;;;;;;;;2050884;28;20027;-67
2022/09/10 03:42:48;;;;;;;4.80;1.95;;;;;;;;;;2050130;28;20039;-68
2022/09/10 03:44:07;;;;;;;3.38;1.55;;;;;;;;;;2048604;28;20032;-68
2022/09/10 03:45:27;;;;;;;3.33;1.85;;;;;;;;;;2047422;28;20032;-68
2022/09/10 03:46:47;;;;;;;1.88;1.67;;;;;;;;;;2042205;29;20078;-68
2022/09/10 03:48:06;;;;;;;5.38;1.48;;;;;;;;;;2041423;29;20879;-68
2022/09/10 03:49:25;;;;;;;1.73;1.40;;;;;;;;;;2047776;28;20023;-68
2022/09/10 03:50:45;;;;;;;6.63;2.03;;;;;;;;;;2050052;28;20521;-68
2022/09/10 03:52:03;;;;;;;3.08;2.13;;;;;;;;;;2048897;28;20240;-68
2022/09/10 03:53:22;;;;;;;2.95;1.60;;;;;;;;;;2049093;28;20039;-68
2022/09/10 03:54:41;;;;;;;3.40;1.42;;;;;;;;;;2050062;28;20078;-67
2022/09/10 03:56:02;;;;;;;5.90;1.60;;;;;;;;;;2049661;28;20094;-69
2022/09/10 03:57:21;;;;;;;1.52;1.40;;;;;;;;;;2046948;28;20424;-67
2022/09/10 03:58:40;;;;;;;3.47;1.50;;;;;;;;;;2047515;28;20500;-68
2022/09/10 04:00:00;;;;;;;1.67;1.58;;;;;;;;;;2052028;28;20032;-67
2022/09/10 04:01:19;;;;;;;1.67;1.30;;;;;;;;;;2050963;28;20054;-67
2022/09/10 04:02:40;;;;;;;3.72;1.42;;;;;;;;;;2048661;28;20035;-67
2022/09/10 04:03:59;;;;;;;3.60;1.40;;;;;;;;;;2049048;28;20032;-67
2022/09/10 04:05:18;;;;;;;2.08;1.40;;;;;;;;;;2049848;28;20047;-67
2022/09/10 04:06:37;;;;;;;4.03;1.42;;;;;;;;;;2050638;28;20038;-69
2022/09/10 04:07:59;;;;;;;3.17;1.45;;;;;;;;;;2051041;28;20030;-67
2022/09/10 04:09:18;;;;;;;8.00;2.17;;;;;;;;;;2048721;28;20034;-67
2022/09/10 04:10:37;;;;;;;4.15;1.40;;;;;;;;;;2051149;28;20035;-67
2022/09/10 04:11:57;;;;;;;4.07;1.63;;;;;;;;;;2049498;28;20035;-68
2022/09/10 04:13:16;;;;;;;2.28;1.55;;;;;;;;;;2042915;29;20151;-67
2022/09/10 04:14:35;;;;;;;1.58;1.48;;;;;;;;;;2049017;28;22862;-67
2022/09/10 04:15:54;;;;;;;3.33;1.60;;;;;;;;;;2049875;28;20028;-67
2022/09/10 04:17:14;;;;;;;4.25;1.52;;;;;;;;;;2050880;28;20031;-68
2022/09/10 04:18:33;;;;;;;1.30;1.10;;;;;;;;;;2050927;28;20469;-67
2022/09/10 04:19:53;;;;;;;2.22;1.25;;;;;;;;;;2050627;28;20047;-67
2022/09/10 04:21:12;;;;;;;1.35;1.23;;;;;;;;;;2049834;28;20039;-67
2022/09/10 04:22:31;;;;;;;1.50;1.40;;;;;;;;;;2052125;28;20024;-67
2022/09/10 04:23:59;;;;;;;2.33;1.58;;;;;;;;;;2049943;28;20114;-67
2022/09/10 04:25:18;;;;;;;2.85;1.50;;;;;;;;;;2050040;28;20535;-68
2022/09/10 04:26:38;;;;;;;3.47;1.40;;;;;;;;;;2048948;28;20154;-67
2022/09/10 04:27:57;;;;;;;2.55;1.20;;;;;;;;;;2049968;28;20085;-67
2022/09/10 04:29:16;;;;;;;3.10;1.63;;;;;;;;;;2048634;28;20040;-67
2022/09/10 04:30:34;;;;;;;3.30;1.60;;;;;;;;;;2050711;28;20035;-67
2022/09/10 04:31:54;;;;;;;2.00;1.40;;;;;;;;;;2049756;28;20031;-67
2022/09/10 04:33:13;;;;;;;2.58;1.15;;;;;;;;;;2048200;28;20035;-67
2022/09/10 04:34:32;;;;;;;3.65;1.38;;;;;;;;;;2050060;28;20038;-67
2022/09/10 04:35:51;;;;;;;2.55;1.42;;;;;;;;;;2051180;28;20440;-67
2022/09/10 04:37:10;;;;;;;3.47;1.50;;;;;;;;;;2052697;28;20045;-67
2022/09/10 04:38:29;;;;;;;1.50;1.10;;;;;;;;;;2049571;28;20035;-67
2022/09/10 04:39:48;;;;;;;2.17;1.23;;;;;;;;;;2048409;28;20388;-67
2022/09/10 04:41:08;;;;;;;2.90;1.13;;;;;;;;;;2049155;28;20027;-67
2022/09/10 04:42:27;;;;;;;4.60;1.25;;;;;;;;;;2052477;28;20030;-67
2022/09/10 04:43:46;;;;;;;4.57;1.30;;;;;;;;;;2050000;28;20429;-67
2022/09/10 04:45:05;;;;;;;3.67;1.70;;;;;;;;;;2049740;28;20502;-67
2022/09/10 04:46:24;;;;;;;1.50;1.40;;;;;;;;;;2050779;28;20023;-67
2022/09/10 04:47:45;;;;;;;1.38;1.20;;;;;;;;;;2052057;28;20484;-67
2022/09/10 04:49:04;;;;;;;5.35;1.40;;;;;;;;;;2047451;28;20043;-67
2022/09/10 04:50:23;;;;;;;3.10;1.60;;;;;;;;;;2050840;28;20035;-67
2022/09/10 04:51:42;;;;;;;1.52;1.40;;;;;;;;;;2051944;28;20403;-67
2022/09/10 04:53:01;;;;;;;2.25;1.45;;;;;;;;;;2051041;28;20031;-67
2022/09/10 04:54:20;;;;;;;2.63;1.15;;;;;;;;;;2013562;28;1132523;-67
2022/09/10 04:55:41;;;;;;;1.52;1.27;;;;;;;;;;2043680;29;20063;-67
2022/09/10 04:57:00;;;;;;;1.98;0.98;;;;;;;;;;2049657;28;20027;-67
2022/09/10 04:58:20;;;;;;;5.95;1.42;;;;;;;;;;2051504;28;20034;-67
2022/09/10 04:59:39;;;;;;;4.55;1.88;;;;;;;;;;2051913;28;20042;-67
2022/09/10 05:00:58;;;;;;;1.30;1.20;;;;;;;;;;2047900;28;20489;-68
2022/09/10 05:02:17;;;;;;;1.92;1.00;;;;;;;;;;2052075;28;20476;-68
2022/09/10 05:03:36;;;;;;;2.55;1.50;;;;;;;;;;2049818;28;20027;-68
2022/09/10 05:04:55;;;;;;;2.75;1.20;;;;;;;;;;2051774;28;20114;-68
2022/09/10 05:06:14;;;;;;;2.33;1.23;;;;;;;;;;2052412;28;20035;-68
2022/09/10 05:07:33;;;;;;;4.88;1.13;;;;;;;;;;2050633;28;20043;-68
2022/09/10 05:08:54;;;;;;;2.83;1.40;;;;;;;;;;2050386;28;20039;-68
2022/09/10 05:10:14;;;;;;;4.22;1.40;;;;;;;;;;2053433;28;20042;-68
2022/09/10 05:11:33;;;;;;;5.20;1.17;;;;;;;;;;2050588;28;20400;-68
2022/09/10 05:12:52;;;;;;;3.70;1.45;;;;;;;;;;2043366;29;20039;-68
2022/09/10 05:14:12;;;;;;;3.25;1.60;;;;;;;;;;2046683;28;20122;-68
2022/09/10 05:15:33;;;;;;;2.70;1.10;;;;;;;;;;2048644;28;20051;-68
2022/09/10 05:16:52;;;;;;;3.13;1.33;;;;;;;;;;2052866;28;20031;-68
2022/09/10 05:18:11;;;;;;;1.95;1.35;;;;;;;;;;2050280;28;20019;-67
2022/09/10 05:19:30;;;;;;;2.42;1.38;;;;;;;;;;2049978;28;20043;-67
2022/09/10 05:20:49;;;;;;;1.75;1.02;;;;;;;;;;2052891;28;20035;-67
2022/09/10 05:22:08;;;;;;;1.38;1.10;;;;;;;;;;2052612;28;20058;-68
2022/09/10 05:23:27;;;;;;;1.73;1.20;;;;;;;;;;2051527;28;20027;-67
2022/09/10 05:24:46;;;;;;;5.90;1.20;;;;;;;;;;2048966;28;20035;-67
2022/09/10 05:26:05;;;;;;;3.78;1.25;;;;;;;;;;2050507;28;20043;-67
2022/09/10 05:27:24;;;;;;;1.38;1.05;;;;;;;;;;2050465;28;20027;-67
2022/09/10 05:28:43;;;;;;;5.10;1.50;;;;;;;;;;2048929;28;20027;-67
2022/09/10 05:30:02;;;;;;;2.30;1.10;;;;;;;;;;2051467;28;20167;-67
2022/09/10 05:31:21;;;;;;;1.80;1.20;;;;;;;;;;2049741;28;20031;-67
2022/09/10 05:32:40;;;;;;;2.97;1.50;;;;;;;;;;2047515;28;20031;-67
2022/09/10 05:34:00;;;;;;;1.50;1.20;;;;;;;;;;2049122;28;20028;-67
2022/09/10 05:35:19;;;;;;;3.47;1.48;;;;;;;;;;2048197;28;20036;-67
2022/09/10 05:36:40;;;;;;;3.47;1.20;;;;;;;;;;2050254;28;20027;-67
2022/09/10 05:38:02;;;;;;;1.20;1.00;;;;;;;;;;2050697;28;20031;-67
2022/09/10 05:39:21;;;;;;;4.93;1.38;;;;;;;;;;2049521;28;20031;-67
2022/09/10 05:40:40;;;;;;;3.53;1.20;;;;;;;;;;2051481;28;20094;-67
2022/09/10 05:42:01;;;;;;;3.00;1.20;;;;;;;;;;2050130;28;20419;-67
2022/09/10 05:43:20;;;;;;;2.45;1.35;;;;;;;;;;2050785;28;20023;-67
2022/09/10 05:44:40;;;;;;;2.95;1.08;;;;;;;;;;2048947;28;20023;-67
2022/09/10 05:45:58;;;;;;;2.58;1.00;;;;;;;;;;2050047;28;20106;-67
2022/09/10 05:47:18;;;;;;;4.15;1.15;;;;;;;;;;2050645;28;20113;-67
2022/09/10 05:48:39;;;;;;;2.78;0.98;;;;;;;;;;2050799;28;20074;-67
2022/09/10 05:49:58;;;;;;;3.13;0.98;;;;;;;;;;2050430;28;20492;-67
2022/09/10 05:51:17;;;;;;;11.23;7.90;;;;;;;;;;2051242;28;20500;-67
2022/09/10 05:52:36;;;;;;;2.53;1.27;;;;;;;;;;2050240;28;20114;-67
2022/09/10 05:53:56;;;;;;;2.33;1.00;;;;;;;;;;2051502;28;20028;-67
2022/09/10 05:55:15;;;;;;;2.92;1.05;;;;;;;;;;2049009;28;20526;-67
2022/09/10 05:56:34;;;;;;;1.98;1.40;;;;;;;;;;2050380;28;20063;-67
2022/09/10 05:57:53;;;;;;;3.47;1.30;;;;;;;;;;2051521;28;20023;-69
2022/09/10 05:59:11;;;;;;;3.53;1.20;;;;;;;;;;2051474;28;20024;-68
2022/09/10 06:00:30;;;;;;;5.85;1.42;;;;;;;;;;2048695;28;20031;-68
2022/09/10 06:01:50;;;;;;;33.92;19.55;;;;;;;;;;2049700;28;20026;-68
2022/09/10 06:03:10;;;;;;;8.25;5.43;;;;;;;;;;2049561;28;20104;-68
2022/09/10 06:04:29;;;;;;;6.45;2.00;;;;;;;;;;2049470;28;20027;-68
2022/09/10 06:05:52;;;;;;;41.15;27.05;;;;;;;;;;2051784;28;20035;-68
2022/09/10 06:07:11;;;;;;;38.60;24.65;;;;;;;;;;2052097;28;20031;-68
2022/09/10 06:08:30;;;;;;;5.57;2.42;;;;;;;;;;2049010;28;20038;-68
2022/09/10 06:09:49;;;;;;;3.33;1.52;;;;;;;;;;2048521;28;20030;-68
2022/09/10 06:11:09;;;;;;;6.40;1.45;;;;;;;;;;2048721;28;20027;-68
2022/09/10 06:12:28;;;;;;;3.50;1.38;;;;;;;;;;2049359;28;20035;-68
2022/09/10 06:13:47;;;;;;;4.63;1.30;;;;;;;;;;2048016;28;20039;-68
2022/09/10 06:15:06;;;;;;;6.30;1.67;;;;;;;;;;2046405;28;20087;-68
2022/09/10 06:16:25;;;;;;;2.55;1.15;;;;;;;;;;2050152;28;20035;-68
2022/09/10 06:17:44;;;;;;;1.88;1.40;;;;;;;;;;2050013;28;20028;-68
2022/09/10 06:19:03;;;;;;;2.80;0.98;;;;;;;;;;2041687;29;20043;-68
2022/09/10 06:20:22;;;;;;;4.32;1.08;;;;;;;;;;2046296;28;20039;-67
2022/09/10 06:21:41;;;;;;;2.08;1.35;;;;;;;;;;2048063;28;20106;-67
2022/09/10 06:23:00;;;;;;;3.95;1.10;;;;;;;;;;2051004;28;20503;-67
2022/09/10 06:24:19;;;;;;;5.63;1.08;;;;;;;;;;2042512;29;20509;-67
2022/09/10 06:25:37;;;;;;;2.15;1.10;;;;;;;;;;2047854;28;20484;-67
2022/09/10 06:26:56;;;;;;;5.13;1.30;;;;;;;;;;2051310;28;20540;-67
2022/09/10 06:28:15;;;;;;;1.27;1.05;;;;;;;;;;2048877;28;20050;-67
2022/09/10 06:29:37;;;;;;;3.20;1.35;;;;;;;;;;2050543;28;20067;-67
2022/09/10 06:30:57;;;;;;;2.35;1.10;;;;;;;;;;2049336;28;20030;-67
2022/09/10 06:32:15;;;;;;;2.90;1.05;;;;;;;;;;2048737;28;20031;-66
2022/09/10 06:33:34;;;;;;;4.10;1.05;;;;;;;;;;2049764;28;20122;-67
2022/09/10 06:34:53;;;;;;;7.97;1.40;;;;;;;;;;2047770;28;20492;-67
2022/09/10 06:36:12;;;;;;;4.65;1.45;;;;;;;;;;2049946;28;20035;-67
2022/09/10 06:37:33;;;;;;;2.85;1.15;;;;;;;;;;2046626;28;20023;-67
2022/09/10 06:38:54;;;;;;;5.10;1.23;;;;;;;;;;2050062;28;20140;-67
2022/09/10 06:40:13;;;;;;;5.40;1.77;;;;;;;;;;2049611;28;20036;-67
2022/09/10 06:41:32;;;;;;;2.47;1.00;;;;;;;;;;2047953;28;20031;-67
2022/09/10 06:42:51;;;;;;;3.22;1.13;;;;;;;;;;2049794;28;20034;-66
2022/09/10 06:44:10;;;;;;;3.38;1.23;;;;;;;;;;2051702;28;20038;-67
2022/09/10 06:45:29;;;;;;;5.20;1.20;;;;;;;;;;2047335;28;20039;-68
2022/09/10 06:46:48;;;;;;;3.70;1.15;;;;;;;;;;2043179;29;20122;-68
2022/09/10 06:48:07;;;;;;;2.78;1.63;;;;;;;;;;2044363;28;20408;-67
2022/09/10 06:49:28;;;;;;;1.92;1.08;;;;;;;;;;2046753;28;20026;-67
2022/09/10 06:50:51;;;;;;;4.75;1.27;;;;;;;;;;2045633;28;20035;-67
2022/09/10 06:52:10;;;;;;;2.28;0.93;;;;;;;;;;2048283;28;20110;-67
2022/09/10 06:53:32;;;;;;;2.50;0.90;;;;;;;;;;2049061;28;20105;-66
2022/09/10 06:54:51;;;;;;;2.28;1.25;;;;;;;;;;2051299;28;20411;-67
2022/09/10 06:56:11;;;;;;;3.30;1.00;;;;;;;;;;2050821;28;20034;-67
2022/09/10 06:57:30;;;;;;;4.32;1.35;;;;;;;;;;2051123;28;20500;-67
2022/09/10 06:58:49;;;;;;;3.05;1.13;;;;;;;;;;2050503;28;20030;-67
2022/09/10 07:00:08;;;;;;;2.22;1.10;;;;;;;;;;2047972;28;20027;-67
2022/09/10 07:01:26;;;;;;;2.15;0.95;;;;;;;;;;2050962;28;20072;-67
2022/09/10 07:02:45;;;;;;;2.55;1.30;;;;;;;;;;2049477;28;20063;-68
2022/09/10 07:04:05;;;;;;;3.80;1.38;;;;;;;;;;2049817;28;20043;-67
2022/09/10 07:05:26;;;;;;;2.83;1.30;;;;;;;;;;2047105;28;20028;-66
2022/09/10 07:06:46;;;;;;;3.92;1.20;;;;;;;;;;2050405;28;20043;-66
2022/09/10 07:08:05;;;;;;;4.72;1.20;;;;;;;;;;2050047;28;20047;-67
2022/09/10 07:09:24;;;;;;;2.78;0.93;;;;;;;;;;2050468;28;20027;-67
2022/09/10 07:10:44;;;;;;;1.77;1.05;;;;;;;;;;2050248;28;20047;-67
2022/09/10 07:12:04;;;;;;;6.50;1.30;;;;;;;;;;2050639;28;20030;-66
2022/09/10 07:13:22;;;;;;;1.45;0.98;;;;;;;;;;2050467;28;20031;-66
2022/09/10 07:14:42;;;;;;;1.42;1.23;;;;;;;;;;2051373;28;20032;-66
2022/09/10 07:16:00;;;;;;;2.75;1.25;;;;;;;;;;2047955;28;20027;-66
2022/09/10 07:17:19;;;;;;;6.70;1.10;;;;;;;;;;2050801;28;20380;-67
2022/09/10 07:18:39;;;;;;;3.97;1.08;;;;;;;;;;2050303;28;20476;-67
2022/09/10 07:19:58;;;;;;;3.03;1.20;;;;;;;;;;2046786;28;20039;-66
2022/09/10 07:21:18;;;;;;;7.05;1.20;;;;;;;;;;2040472;29;20036;-66
2022/09/10 07:22:38;;;;;;;3.33;1.10;;;;;;;;;;2047064;28;20027;-67
2022/09/10 07:24:00;;;;;;;2.15;0.93;;;;;;;;;;2050065;28;20392;-67
2022/09/10 07:25:19;;;;;;;2.30;1.00;;;;;;;;;;2048508;28;20514;-67
2022/09/10 07:26:37;;;;;;;5.30;1.30;;;;;;;;;;2050405;28;20039;-66
2022/09/10 07:27:56;;;;;;;4.70;1.10;;;;;;;;;;2048909;28;20035;-67
2022/09/10 07:29:17;;;;;;;4.25;1.40;;;;;;;;;;2048034;28;20031;-66
2022/09/10 07:30:36;;;;;;;0.90;0.70;;;;;;;;;;2047803;28;20039;-66
2022/09/10 07:31:55;;;;;;;3.78;1.05;;;;;;;;;;2044498;28;20034;-67
2022/09/10 07:33:13;;;;;;;3.25;1.77;;;;;;;;;;2046968;28;20139;-67
2022/09/10 07:34:33;;;;;;;1.65;0.95;;;;;;;;;;2048895;28;20027;-67
2022/09/10 07:35:51;;;;;;;2.25;0.90;;;;;;;;;;2047054;28;20058;-66
2022/09/10 07:37:10;;;;;;;2.45;0.90;;;;;;;;;;2050075;28;20427;-67
2022/09/10 07:38:29;;;;;;;1.90;1.08;;;;;;;;;;2049722;28;20035;-66
2022/09/10 07:39:49;;;;;;;2.90;0.80;;;;;;;;;;2046375;28;20102;-67
2022/09/10 07:41:12;;;;;;;3.00;1.13;;;;;;;;;;2047252;28;20027;-67
2022/09/10 07:42:31;;;;;;;2.00;1.00;;;;;;;;;;2050544;28;20023;-67
2022/09/10 07:43:54;;;;;;;1.23;0.68;;;;;;;;;;2047061;28;20031;-67
2022/09/10 07:45:14;;;;;;;2.30;0.82;;;;;;;;;;2048722;28;20043;-67
2022/09/10 07:46:34;;;;;;;1.55;1.13;;;;;;;;;;2047685;28;20039;-67
2022/09/10 07:47:53;;;;;;;3.03;1.38;;;;;;;;;;2049040;28;20035;-67
2022/09/10 07:49:12;;;;;;;1.92;0.93;;;;;;;;;;2049651;28;20038;-67
2022/09/10 07:50:31;;;;;;;2.38;0.90;;;;;;;;;;2050957;28;20071;-68
2022/09/10 07:51:52;;;;;;;3.13;0.98;;;;;;;;;;2048677;28;20050;-67
2022/09/10 07:53:11;;;;;;;3.97;1.05;;;;;;;;;;2049969;28;20110;-67
2022/09/10 07:54:30;;;;;;;4.13;0.90;;;;;;;;;;2047731;28;20457;-67
2022/09/10 07:55:56;;;;;;;3.00;1.10;;;;;;;;;;2048455;28;20047;-67
2022/09/10 07:57:15;;;;;;;3.92;1.13;;;;;;;;;;2048174;28;20034;-67
2022/09/10 07:58:34;;;;;;;2.65;1.35;;;;;;;;;;2047261;28;20036;-67
2022/09/10 07:59:53;;;;;;;3.05;0.85;;;;;;;;;;2049800;28;20026;-67
2022/09/10 08:01:12;;;;;;;6.35;1.08;;;;;;;;;;2048517;28;20027;-67
2022/09/10 08:02:31;;;;;;;2.03;1.23;;;;;;;;;;2047281;28;20035;-67